Time;durP1;ratioP1;P1;durP2;ratioP2;P2;SDS_P1;SDS_P2;PMS_P1;PMS_P2;Temp;Humidity;BMP_temperature;BMP_pressure;BME280_temperature;BME280_humidity;BME280_pressure;Samples;Min_cycle;Max_cycle;Signal;HPM_P1;HPM_P2
2022/06/25 00:01:52;;;;;;;19.38;13.65;;;17.20;99.90;;;;;;6219477;23;20063;-89
2022/06/25 00:08:35;;;;;;;20.90;14.45;;;16.90;99.90;;;;;;6246831;23;20516;-88
2022/06/25 00:15:06;;;;;;;21.77;15.43;;;17.10;99.90;;;;;;6246303;23;20051;-89
2022/06/25 00:17:38;;;;;;;21.27;16.25;;;17.10;99.90;;;;;;6219252;23;20016;-88
2022/06/25 00:21:23;;;;;;;22.80;16.33;;;17.10;99.90;;;;;;6242600;23;20032;-88
2022/06/25 00:24:09;;;;;;;22.20;16.52;;;17.10;99.90;;;;;;6234495;23;20395;-89
2022/06/25 00:27:11;;;;;;;22.23;16.67;;;17.90;99.90;;;;;;6124042;23;20018;-89
2022/06/25 00:30:31;;;;;;;23.85;16.73;;;17.00;99.90;;;;;;6123976;23;20025;-89
2022/06/25 00:33:18;;;;;;;22.10;16.48;;;17.20;99.90;;;;;;6112849;23;20565;-89
2022/06/25 00:39:33;;;;;;;;;;;;;;;;;;;;;
2022/06/25 00:42:39;;;;;;;22.73;16.17;;;17.40;99.90;;;;;;6074695;23;20394;-89
2022/06/25 00:45:33;;;;;;;25.33;17.92;;;16.80;99.90;;;;;;6120256;23;20029;-89
2022/06/25 00:52:16;;;;;;;29.13;19.35;;;17.10;99.90;;;;;;6007836;23;20038;-89
2022/06/25 00:55:36;;;;;;;26.95;18.95;;;17.90;99.90;;;;;;5984919;23;20027;-89
2022/06/25 01:01:14;;;;;;;27.67;18.92;;;17.30;99.90;;;;;;6065094;23;20027;-88
2022/06/25 01:07:38;;;;;;;28.30;18.83;;;16.50;99.90;;;;;;6130350;22;20023;-89
2022/06/25 01:32:06;;;;;;;30.40;19.67;;;16.10;99.90;;;;;;6243666;23;20020;-90
2022/06/25 01:40:18;;;;;;;31.40;20.60;;;16.20;99.90;;;;;;6276486;22;20091;-90
2022/06/25 01:49:10;;;;;;;31.33;20.52;;;16.20;99.90;;;;;;6272863;22;20025;-88
2022/06/25 01:52:46;;;;;;;31.00;20.15;;;16.50;99.90;;;;;;6276193;22;20011;-88
2022/06/25 01:55:31;;;;;;;30.92;20.05;;;16.10;99.90;;;;;;6247697;22;20429;-88
2022/06/25 01:58:03;;;;;;;30.17;20.98;;;17.10;99.90;;;;;;6172813;22;20134;-88
2022/06/25 02:00:47;;;;;;;30.90;21.90;;;17.10;99.90;;;;;;6276294;22;20016;-91
2022/06/25 02:03:22;;;;;;;28.88;20.67;;;16.50;99.90;;;;;;6247144;22;20022;-88
2022/06/25 02:06:18;;;;;;;28.77;20.65;;;16.60;99.90;;;;;;6247553;22;20371;-88
2022/06/25 02:09:28;;;;;;;32.33;21.60;;;16.00;99.90;;;;;;6248835;22;20042;-90
2022/06/25 02:12:07;;;;;;;34.60;22.73;;;16.10;99.90;;;;;;6122945;23;20025;-91
2022/06/25 02:15:07;;;;;;;36.65;23.17;;;16.10;99.90;;;;;;6101847;23;20190;-90
2022/06/25 02:17:42;;;;;;;29.55;21.08;;;16.10;99.90;;;;;;6096004;23;20076;-90
2022/06/25 02:20:42;;;;;;;32.72;22.70;;;15.70;99.90;;;;;;6121749;23;20018;-90
2022/06/25 02:26:13;;;;;;;32.55;21.45;;;16.10;99.90;;;;;;6098575;23;20427;-90
2022/06/25 02:29:00;;;;;;;30.80;20.90;;;16.80;99.90;;;;;;6098960;23;20021;-90
2022/06/25 02:35:16;;;;;;;30.23;21.17;;;16.00;99.90;;;;;;6067808;23;20031;-90
2022/06/25 02:38:17;;;;;;;31.05;20.48;;;16.50;99.90;;;;;;6020919;23;20348;-90
2022/06/25 02:43:24;;;;;;;29.85;20.73;;;16.10;99.90;;;;;;6275326;22;20031;-90
2022/06/25 02:45:59;;;;;;;29.50;19.65;;;16.60;99.90;;;;;;6249373;22;20028;-90
2022/06/25 02:48:34;;;;;;;32.95;22.08;;;17.00;99.90;;;;;;6249998;22;20019;-90
2022/06/25 02:51:34;;;;;;;35.80;21.90;;;17.10;99.90;;;;;;6251121;22;20085;-90
2022/06/25 02:54:11;;;;;;;36.38;23.67;;;16.00;99.90;;;;;;6277709;22;20094;-90
2022/06/25 03:00:30;;;;;;;35.60;21.63;;;15.50;99.90;;;;;;6276690;22;20085;-90
2022/06/25 03:03:08;;;;;;;31.55;20.98;;;15.90;99.90;;;;;;6249590;22;20027;-90
2022/06/25 03:05:54;;;;;;;32.30;21.77;;;16.30;99.90;;;;;;6277730;22;20458;-90
2022/06/25 03:08:40;;;;;;;31.75;20.40;;;16.50;99.90;;;;;;6250841;22;20054;-90
2022/06/25 03:11:43;;;;;;;33.15;22.05;;;16.20;99.90;;;;;;6274403;22;20103;-90
2022/06/25 03:14:49;;;;;;;36.65;22.23;;;15.80;99.90;;;;;;6249837;22;20085;-90
2022/06/25 03:17:15;;;;;;;36.78;21.60;;;15.80;99.90;;;;;;6250536;22;20023;-90
2022/06/25 03:20:03;;;;;;;34.47;21.58;;;15.80;99.90;;;;;;6276887;22;20433;-90
2022/06/25 03:22:43;;;;;;;34.30;20.70;;;15.70;99.90;;;;;;6250790;22;20495;-90
2022/06/25 03:25:09;;;;;;;30.33;19.60;;;15.00;99.90;;;;;;6224231;22;20043;-90
2022/06/25 03:27:44;;;;;;;29.25;20.20;;;15.70;99.90;;;;;;6277112;22;20085;-90
2022/06/25 03:30:11;;;;;;;34.45;20.60;;;16.60;99.90;;;;;;6249567;22;20098;-90
2022/06/25 03:33:14;;;;;;;34.10;22.30;;;15.70;99.90;;;;;;6250411;22;20027;-90
2022/06/25 03:36:05;;;;;;;32.38;21.23;;;15.70;99.90;;;;;;6197767;22;20352;-90
2022/06/25 03:38:31;;;;;;;31.48;21.38;;;15.70;99.90;;;;;;6273957;22;20011;-89
2022/06/25 03:43:51;;;;;;;33.17;20.23;;;15.80;99.90;;;;;;6277117;22;20024;-90
2022/06/25 03:46:29;;;;;;;28.47;18.77;;;16.50;99.90;;;;;;6277877;22;20351;-90
2022/06/25 03:49:13;;;;;;;28.17;18.45;;;16.50;99.90;;;;;;6249580;22;20102;-89
2022/06/25 03:51:51;;;;;;;;;;;15.70;99.90;;;;;;6250285;22;20012;-90
2022/06/25 03:54:50;;;;;;;28.05;17.80;;;15.80;99.90;;;;;;6153901;23;20417;-90
2022/06/25 03:57:31;;;;;;;26.23;17.77;;;15.70;99.90;;;;;;6104474;23;20028;-89
2022/06/25 04:04:03;;;;;;;26.98;16.58;;;15.80;99.90;;;;;;6065443;23;20059;-90
2022/06/25 04:06:32;;;;;;;25.70;16.48;;;15.80;99.90;;;;;;6150514;23;20461;-91
2022/06/25 04:08:58;;;;;;;23.70;15.77;;;15.80;99.90;;;;;;6193780;22;20020;-89
2022/06/25 04:11:45;;;;;;;22.10;15.02;;;16.90;99.90;;;;;;6276763;22;20047;-89
2022/06/25 04:14:39;;;;;;;22.17;14.75;;;15.80;99.90;;;;;;6277145;22;20502;-89
2022/06/25 04:17:20;;;;;;;20.95;13.40;;;15.90;99.90;;;;;;6249107;22;20066;-88
2022/06/25 04:20:21;;;;;;;20.30;14.05;;;16.70;99.90;;;;;;6250086;22;20058;-88
2022/06/25 04:22:56;;;;;;;19.77;12.82;;;17.00;99.90;;;;;;6248859;22;20022;-89
2022/06/25 04:25:21;;;;;;;20.63;13.90;;;16.10;99.90;;;;;;6250082;22;20015;-89
2022/06/25 04:30:53;;;;;;;21.30;13.45;;;16.30;99.90;;;;;;6249777;22;20015;-89
2022/06/25 04:33:40;;;;;;;19.30;12.20;;;16.30;99.90;;;;;;6249446;22;20019;-89
2022/06/25 04:36:25;;;;;;;20.08;12.88;;;16.00;99.90;;;;;;6277263;22;20023;-90
2022/06/25 04:38:51;;;;;;;20.73;13.02;;;16.50;99.90;;;;;;6248812;22;20012;-88
2022/06/25 04:45:05;;;;;;;19.42;12.65;;;16.40;99.90;;;;;;6248602;22;20022;-89
2022/06/25 04:47:52;;;;;;;18.30;12.20;;;16.50;99.90;;;;;;6275808;22;20098;-90
2022/06/25 04:50:59;;;;;;;18.80;12.95;;;17.70;99.90;;;;;;6250009;22;20016;-89
2022/06/25 04:56:31;;;;;;;19.60;12.23;;;16.60;99.90;;;;;;6100401;23;20022;-89
2022/06/25 04:59:12;;;;;;;20.30;12.43;;;16.70;99.90;;;;;;6123858;23;20024;-88
2022/06/25 05:02:13;;;;;;;18.88;12.77;;;17.60;99.90;;;;;;6124757;23;20014;-89
2022/06/25 05:05:29;;;;;;;18.58;11.88;;;17.40;99.90;;;;;;6099965;23;20026;-88
2022/06/25 05:08:17;;;;;;;21.05;12.00;;;16.90;99.90;;;;;;6124483;23;20030;-89
2022/06/25 05:10:52;;;;;;;18.38;11.60;;;18.00;99.90;;;;;;6098637;23;20021;-88
2022/06/25 05:17:03;;;;;;;17.27;10.50;;;17.00;99.90;;;;;;6276132;22;20027;-88
2022/06/25 05:20:35;;;;;;;19.17;12.15;;;17.00;99.90;;;;;;6249812;22;20019;-88
2022/06/25 05:23:01;;;;;;;16.17;10.27;;;17.10;99.90;;;;;;6277014;22;20077;-88
2022/06/25 05:25:45;;;;;;;18.05;10.18;;;17.20;99.90;;;;;;6247872;22;20333;-86
2022/06/25 05:28:15;;;;;;;15.23;9.43;;;18.30;99.90;;;;;;6219476;23;20065;-89
2022/06/25 05:31:03;;;;;;;22.33;9.68;;;18.20;99.90;;;;;;6201584;23;20046;-89
2022/06/25 05:33:41;;;;;;;15.98;9.93;;;17.50;99.90;;;;;;6220010;23;20463;-89
2022/06/25 05:36:12;;;;;;;17.65;9.57;;;17.60;99.90;;;;;;6249177;23;20093;-88
2022/06/25 05:38:41;;;;;;;16.20;9.15;;;18.20;99.90;;;;;;6239376;23;20012;-88
2022/06/25 05:41:10;;;;;;;15.40;8.30;;;18.10;99.90;;;;;;6241529;23;20459;-89
2022/06/25 05:43:39;;;;;;;14.40;8.63;;;18.60;99.90;;;;;;6227560;23;20043;-89
2022/06/25 05:46:27;;;;;;;16.05;8.82;;;17.60;99.90;;;;;;6220888;23;20051;-88
2022/06/25 05:48:52;;;;;;;15.38;9.23;;;17.60;99.90;;;;;;6247630;23;20016;-87
2022/06/25 05:51:28;;;;;;;14.60;8.35;;;17.60;99.90;;;;;;6221848;23;20087;-89
2022/06/25 05:54:09;;;;;;;14.07;8.27;;;17.30;99.90;;;;;;6221308;23;20027;-89
2022/06/25 05:56:48;;;;;;;18.02;9.25;;;18.60;99.90;;;;;;6219589;23;20095;-88
2022/06/25 05:59:27;;;;;;;18.10;8.90;;;18.20;99.90;;;;;;6254480;22;20016;-86
2022/06/25 06:02:16;;;;;;;17.10;8.25;;;17.80;99.90;;;;;;6276458;22;20505;-89
2022/06/25 06:04:42;;;;;;;14.77;7.93;;;17.70;99.90;;;;;;6249364;22;20012;-88
2022/06/25 06:07:08;;;;;;;15.50;7.90;;;18.00;99.90;;;;;;6249662;22;20103;-88
2022/06/25 06:09:33;;;;;;;14.85;7.80;;;18.60;99.90;;;;;;6248873;22;20437;-88
2022/06/25 06:12:18;;;;;;;15.10;7.68;;;18.20;99.90;;;;;;6276115;22;20023;-88
2022/06/25 06:14:49;;;;;;;13.07;7.43;;;19.10;99.90;;;;;;6249109;22;20062;-88
2022/06/25 06:17:30;;;;;;;12.38;7.82;;;19.30;99.90;;;;;;6249907;22;20092;-88
2022/06/25 06:20:08;;;;;;;12.80;7.85;;;18.40;99.90;;;;;;6249031;22;20023;-88
2022/06/25 06:22:45;;;;;;;12.07;8.07;;;18.40;99.90;;;;;;6275658;22;20015;-88
2022/06/25 06:25:12;;;;;;;13.02;7.05;;;18.50;99.90;;;;;;6275668;22;20463;-88
2022/06/25 06:27:37;;;;;;;14.35;7.70;;;19.50;99.90;;;;;;6249110;22;20012;-89
2022/06/25 06:30:04;;;;;;;11.75;7.38;;;19.30;99.90;;;;;;6217495;23;20031;-88
2022/06/25 06:32:29;;;;;;;11.77;6.38;;;18.60;99.90;;;;;;6142755;23;20027;-88
2022/06/25 06:34:58;;;;;;;10.38;6.28;;;18.60;99.90;;;;;;6218072;23;20021;-88
2022/06/25 06:37:24;;;;;;;12.02;6.50;;;19.60;99.90;;;;;;6217837;23;20020;-86
2022/06/25 06:39:59;;;;;;;12.70;6.70;;;18.80;99.90;;;;;;6245448;23;20066;-93
2022/06/25 06:43:08;;;;;;;13.95;6.70;;;18.90;99.90;;;;;;6219561;23;20020;-93
2022/06/25 06:46:05;;;;;;;10.70;5.70;;;19.00;99.90;;;;;;6218963;23;20440;-94
2022/06/25 06:48:33;;;;;;;10.57;5.30;;;18.70;99.90;;;;;;6219181;23;20020;-92
2022/06/25 06:51:18;;;;;;;11.55;5.10;;;19.30;99.90;;;;;;6217236;23;20015;-89
2022/06/25 06:54:19;;;;;;;10.82;5.50;;;19.20;99.90;;;;;;6219261;23;20034;-95
2022/06/25 06:57:15;;;;;;;10.07;5.38;;;19.40;99.90;;;;;;6125059;23;20022;-95
2022/06/25 06:59:58;;;;;;;9.80;5.22;;;20.20;99.90;;;;;;6122961;23;20029;-95
2022/06/25 07:02:45;;;;;;;11.68;5.20;;;19.80;99.90;;;;;;6112298;23;20391;-93
2022/06/25 07:08:57;;;;;;;10.25;5.03;;;19.90;99.90;;;;;;6219412;23;20020;-88
2022/06/25 07:11:38;;;;;;;9.18;4.70;;;21.00;99.90;;;;;;6246600;23;20043;-92
2022/06/25 07:20:35;;;;;;;9.95;4.38;;;20.40;99.90;;;;;;6273444;22;20034;-89
2022/06/25 07:26:35;;;;;;;9.68;4.40;;;20.60;99.90;;;;;;6268153;22;20482;-93
2022/06/25 07:29:01;;;;;;;10.10;4.00;;;20.50;99.90;;;;;;6202792;22;20019;-91
2022/06/25 07:34:19;;;;;;;9.70;3.95;;;20.90;99.90;;;;;;6246977;22;20028;-93
2022/06/25 07:52:11;;;;;;;10.90;4.13;;;21.70;99.90;;;;;;6247979;23;20015;-95
2022/06/25 09:17:55;;;;;;;9.02;3.33;;;22.80;99.90;;;;;;6245099;23;20361;-89
2022/06/25 09:21:04;;;;;;;8.27;3.30;;;23.10;99.90;;;;;;6218338;23;20062;-88
2022/06/25 09:27:49;;;;;;;9.38;3.80;;;23.70;99.90;;;;;;6121915;23;20513;-89
2022/06/25 09:33:25;;;;;;;9.95;3.67;;;24.20;99.90;;;;;;6224258;22;20016;-88
2022/06/25 09:36:15;;;;;;;9.13;4.05;;;24.10;99.90;;;;;;6276578;22;20024;-88
2022/06/25 09:39:00;;;;;;;9.82;3.47;;;23.80;99.90;;;;;;6249185;22;20084;-87
2022/06/25 09:41:26;;;;;;;7.80;3.47;;;23.80;99.90;;;;;;6249298;22;20016;-88
2022/06/25 09:43:52;;;;;;;10.60;3.60;;;24.20;99.90;;;;;;6249109;22;20016;-89
2022/06/25 09:47:01;;;;;;;9.00;3.38;;;23.70;99.90;;;;;;6276107;22;20011;-89
2022/06/25 09:50:05;;;;;;;10.77;3.83;;;23.70;99.90;;;;;;6236093;22;20095;-87
2022/06/25 09:52:36;;;;;;;10.13;3.80;;;23.90;99.90;;;;;;6248854;22;20016;-89
2022/06/25 09:55:21;;;;;;;8.93;3.72;;;24.20;99.90;;;;;;6275674;22;20333;-89
2022/06/25 09:58:17;;;;;;;10.63;3.53;;;24.30;99.90;;;;;;6138962;23;20056;-89
2022/06/25 10:00:54;;;;;;;8.70;3.33;;;24.20;99.90;;;;;;6157415;23;20055;-90
2022/06/25 10:03:38;;;;;;;8.85;3.60;;;24.20;99.90;;;;;;6185585;23;20012;-90
2022/06/25 10:06:05;;;;;;;7.03;2.90;;;24.40;99.90;;;;;;6184067;23;20393;-89
2022/06/25 10:08:32;;;;;;;10.00;3.40;;;24.40;99.90;;;;;;6157326;23;20036;-91
2022/06/25 10:11:05;;;;;;;9.10;3.38;;;24.60;99.90;;;;;;6157307;23;20100;-90
2022/06/25 10:16:50;;;;;;;9.45;3.65;;;24.40;99.90;;;;;;6181253;23;20020;-90
2022/06/25 10:19:42;;;;;;;8.35;3.20;;;24.30;99.90;;;;;;6158277;23;20091;-90
2022/06/25 10:22:28;;;;;;;9.95;3.00;;;24.50;99.90;;;;;;6156987;23;20040;-91
2022/06/25 10:25:20;;;;;;;10.38;3.10;;;24.60;99.90;;;;;;6156922;23;20108;-89
2022/06/25 10:28:29;;;;;;;7.78;2.60;;;24.80;99.90;;;;;;6071340;23;20160;-90
2022/06/25 10:31:29;;;;;;;8.35;2.67;;;24.80;99.90;;;;;;6093003;23;20435;-89
2022/06/25 10:34:15;;;;;;;9.30;2.67;;;24.90;99.90;;;;;;6067075;23;20123;-89
2022/06/25 10:37:05;;;;;;;7.68;2.80;;;24.80;99.90;;;;;;6151461;23;20021;-89
2022/06/25 10:40:08;;;;;;;8.90;2.80;;;24.80;99.90;;;;;;6151818;23;20018;-89
2022/06/25 11:01:19;;;;;;;8.35;2.40;;;25.80;99.90;;;;;;6244812;23;20024;-89
2022/06/25 11:08:30;;;;;;;6.80;2.10;;;25.60;99.90;;;;;;6215273;23;20017;-91
2022/06/25 11:15:48;;;;;;;11.75;2.90;;;25.40;99.90;;;;;;6217090;22;20024;-91
2022/06/25 11:23:28;;;;;;;;;;;;;;;;;;;;;
2022/06/25 11:29:54;;;;;;;8.38;2.22;;;26.30;99.90;;;;;;6178265;22;20407;-89
2022/06/25 11:32:51;;;;;;;7.20;2.20;;;26.50;99.90;;;;;;6276825;22;20054;-88
2022/06/25 11:39:06;;;;;;;7.88;2.25;;;26.40;99.90;;;;;;6276443;22;20459;-88
2022/06/25 11:56:13;;;;;;;5.30;2.00;;;26.60;99.90;;;;;;6124280;23;20029;-89
2022/06/25 12:14:05;;;;;;;6.50;1.98;;;27.10;99.90;;;;;;6277393;22;20027;-94
2022/06/25 12:21:43;;;;;;;6.97;2.10;;;26.90;99.90;;;;;;6250872;22;20098;-91
2022/06/25 12:28:53;;;;;;;6.18;1.98;;;27.20;98.70;;;;;;6160387;22;20512;-91
2022/06/25 12:47:33;;;;;;;6.63;2.20;;;26.00;99.90;;;;;;6276585;22;20085;-90
2022/06/25 12:54:19;;;;;;;;;;;;;;;;;;;;;
2022/06/25 13:00:50;;;;;;;6.03;2.17;;;25.70;99.00;;;;;;6128538;23;20151;-88
2022/06/25 13:07:13;;;;;;;7.45;2.25;;;25.70;99.90;;;;;;6152811;23;20069;-88
2022/06/25 13:10:13;;;;;;;6.20;2.30;;;25.50;99.90;;;;;;6153188;23;20021;-89
2022/06/25 13:21:46;;;;;;;5.05;1.80;;;24.80;99.90;;;;;;6261850;22;20026;-90
2022/06/25 13:41:55;;;;;;;7.35;2.30;;;25.60;99.90;;;;;;6123356;23;20020;-89
2022/06/25 13:48:16;;;;;;;;;;;;;;;;;;;;;
2022/06/25 13:51:34;;;;;;;6.15;2.20;;;26.00;99.90;;;;;;6174340;22;20022;-89
2022/06/25 13:54:14;;;;;;;7.45;2.30;;;25.70;99.90;;;;;;6276505;22;20549;-87
2022/06/25 13:57:21;;;;;;;;;;;;;;;;;;;;;
2022/06/25 14:04:01;;;;;;;7.05;2.17;;;25.60;99.90;;;;;;6128831;23;20056;-89
2022/06/25 14:07:22;;;;;;;6.50;2.22;;;25.50;99.90;;;;;;6109038;23;20040;-88
2022/06/25 14:10:23;;;;;;;6.80;2.40;;;25.30;99.90;;;;;;6152191;23;20022;-88
2022/06/25 14:16:59;;;;;;;;;;;25.10;99.90;;;;;;6093784;23;20033;-87
2022/06/25 14:29:37;;;;;;;7.78;2.20;;;25.10;99.90;;;;;;6019709;23;20031;-87
2022/06/25 14:47:21;;;;;;;6.18;1.90;;;26.50;99.90;;;;;;6023614;23;20185;-93
2022/06/25 14:54:18;;;;;;;6.93;2.10;;;27.30;99.90;;;;;;5904879;24;20057;-95
2022/06/25 15:00:49;;;;;;;4.97;1.90;;;27.80;99.90;;;;;;5924985;23;20032;-91
2022/06/25 15:14:05;;;;;;;6.47;2.10;;;28.60;98.40;;;;;;6052584;23;20010;-94
2022/06/25 15:21:00;;;;;;;5.80;1.80;;;28.60;96.10;;;;;;6097006;23;20017;-94
2022/06/25 15:27:58;;;;;;;5.10;1.60;;;28.60;98.70;;;;;;6066574;23;20034;-94
2022/06/25 15:31:12;;;;;;;;;;;28.50;94.60;;;;;;5952881;24;20029;-92
2022/06/25 15:33:38;;;;;;;5.55;1.70;;;28.00;94.90;;;;;;5929809;24;20388;-91
2022/06/25 15:36:57;;;;;;;5.32;1.90;;;27.70;99.80;;;;;;5952934;24;20021;-95
2022/06/25 15:40:00;;;;;;;4.85;2.00;;;27.60;95.90;;;;;;5952079;24;20065;-94
2022/06/25 15:42:30;;;;;;;5.03;1.83;;;27.20;95.50;;;;;;5929670;24;20074;-94
2022/06/25 15:52:38;;;;;;;4.35;1.48;;;27.10;97.80;;;;;;5843279;24;20177;-94
2022/06/25 16:01:36;;;;;;;5.20;1.70;;;26.60;97.70;;;;;;6220792;23;20016;-95
2022/06/25 16:07:51;;;;;;;7.63;2.80;;;26.40;98.00;;;;;;6219469;23;20027;-92
2022/06/25 16:10:32;;;;;;;6.75;2.10;;;26.50;98.00;;;;;;6100338;23;20025;-94
2022/06/25 16:24:50;;;;;;;4.47;1.70;;;27.30;99.40;;;;;;6219881;22;20341;-92
2022/06/25 16:28:00;;;;;;;6.47;1.65;;;27.70;97.80;;;;;;6277470;22;20015;-92
2022/06/25 16:42:23;;;;;;;3.78;1.70;;;27.40;97.00;;;;;;6246836;23;20058;-95
2022/06/25 16:44:56;;;;;;;5.75;1.85;;;27.40;96.20;;;;;;6247569;23;20023;-93
2022/06/25 16:47:51;;;;;;;;;;;;;;;;;;;;;
2022/06/25 16:51:30;;;;;;;7.55;2.22;;;27.60;95.90;;;;;;6234326;22;20023;-92
2022/06/25 16:54:53;;;;;;;9.07;2.38;;;27.60;96.00;;;;;;6273549;22;20087;-93
2022/06/25 17:01:17;;;;;;;6.83;2.10;;;27.40;98.20;;;;;;6124557;23;20017;-93
2022/06/25 17:07:50;;;;;;;;;;;26.90;96.80;;;;;;6126537;23;20044;-93
2022/06/25 17:10:49;;;;;;;4.38;1.80;;;26.60;96.70;;;;;;6100675;23;19924;-93
2022/06/25 17:13:42;;;;;;;6.03;1.75;;;26.50;97.60;;;;;;5953584;24;20032;-94
2022/06/25 17:16:38;;;;;;;6.78;1.95;;;26.50;98.70;;;;;;5953619;24;20433;-94
2022/06/25 17:23:22;;;;;;;;;;;;;;;;;;;;;
2022/06/25 17:26:19;;;;;;;4.70;1.73;;;26.30;98.10;;;;;;5897448;24;20232;-94
2022/06/25 17:28:58;;;;;;;6.00;1.80;;;26.40;99.40;;;;;;5926313;24;20025;-94
2022/06/25 17:32:02;;;;;;;6.18;2.05;;;26.50;99.30;;;;;;5968181;24;20020;-94
2022/06/25 17:40:23;;;;;;;5.72;1.70;;;26.40;99.20;;;;;;6184277;23;20040;-93
2022/06/25 17:47:04;;;;;;;4.95;1.73;;;26.50;98.20;;;;;;6037181;23;20027;-93
2022/06/25 17:54:27;;;;;;;5.60;2.10;;;26.80;99.90;;;;;;6063288;23;20037;-93
2022/06/25 18:12:21;;;;;;;4.43;1.63;;;25.80;99.90;;;;;;6093937;23;20021;-95
2022/06/25 18:14:47;;;;;;;4.40;1.80;;;25.70;99.90;;;;;;6069721;23;20033;-94
2022/06/25 18:17:13;;;;;;;5.75;1.70;;;25.60;99.90;;;;;;6071094;23;20023;-94
2022/06/25 18:34:01;;;;;;;6.13;1.90;;;25.10;99.90;;;;;;6132284;23;20073;-93
2022/06/25 18:40:08;;;;;;;;;;;;;;;;;;;;;
2022/06/25 18:43:09;;;;;;;6.05;2.00;;;25.20;99.90;;;;;;6095361;23;20041;-94
2022/06/25 18:46:22;;;;;;;5.97;1.95;;;25.10;99.90;;;;;;6064251;23;20458;-93
2022/06/25 18:48:48;;;;;;;;;;;25.00;99.90;;;;;;6246350;23;20336;-93
2022/06/25 18:59:13;;;;;;;6.18;2.10;;;24.60;99.90;;;;;;6275747;22;20070;-95
2022/06/25 19:08:27;;;;;;;6.30;2.10;;;24.30;99.90;;;;;;6274479;22;20024;-93
2022/06/25 19:11:22;;;;;;;7.05;2.33;;;24.20;99.90;;;;;;6274937;22;20459;-93
2022/06/25 19:13:50;;;;;;;7.00;2.63;;;23.80;99.90;;;;;;6276179;22;20012;-93
2022/06/25 19:16:16;;;;;;;7.65;2.60;;;23.90;99.90;;;;;;6247507;22;20011;-94
2022/06/25 19:19:42;;;;;;;7.07;2.80;;;24.10;99.90;;;;;;6271973;22;20028;-92
2022/06/25 19:23:11;;;;;;;7.88;3.00;;;23.70;99.90;;;;;;6249083;22;20069;-94
2022/06/25 19:25:39;;;;;;;9.18;3.35;;;23.40;99.90;;;;;;6275642;22;20026;-94
2022/06/25 19:28:20;;;;;;;9.35;3.20;;;23.30;99.90;;;;;;6277754;22;20019;-94
2022/06/25 19:31:35;;;;;;;10.55;3.67;;;23.30;99.90;;;;;;6250580;22;20015;-93
2022/06/25 19:45:35;;;;;;;9.45;3.20;;;22.70;99.90;;;;;;6008276;23;20028;-92
2022/06/25 20:02:38;;;;;;;8.75;4.50;;;22.10;99.90;;;;;;6213300;22;20046;-92
2022/06/25 20:29:21;;;;;;;10.27;4.70;;;21.40;99.90;;;;;;6093169;23;20068;-88
2022/06/25 20:31:55;;;;;;;11.27;4.82;;;21.30;99.90;;;;;;6092839;23;20029;-87
2022/06/25 20:34:39;;;;;;;11.15;5.03;;;21.20;99.90;;;;;;6193012;23;20081;-87
2022/06/25 20:37:26;;;;;;;10.77;5.30;;;21.20;99.90;;;;;;6193745;23;20018;-87
2022/06/25 20:40:19;;;;;;;12.25;5.32;;;21.10;99.90;;;;;;6146242;22;20036;-87
2022/06/25 20:45:42;;;;;;;11.10;5.63;;;21.00;99.90;;;;;;6128883;23;20469;-87
2022/06/25 20:48:08;;;;;;;11.77;5.15;;;21.00;99.90;;;;;;6152764;23;20450;-87
2022/06/25 20:50:40;;;;;;;10.95;5.15;;;21.70;99.90;;;;;;6129235;23;20049;-88
2022/06/25 20:53:24;;;;;;;13.57;5.38;;;20.90;99.90;;;;;;6153355;23;20473;-90
2022/06/25 20:55:49;;;;;;;11.07;5.65;;;20.90;99.90;;;;;;6150500;23;20024;-86
2022/06/25 20:58:34;;;;;;;11.65;5.82;;;20.80;99.90;;;;;;6152108;23;20064;-87
2022/06/25 21:09:33;;;;;;;11.63;5.90;;;21.30;99.90;;;;;;6216813;23;20019;-89
2022/06/25 21:12:14;;;;;;;10.63;6.20;;;20.60;99.90;;;;;;6244728;23;20394;-88
2022/06/25 21:14:39;;;;;;;11.70;6.57;;;20.50;99.90;;;;;;6218671;23;20012;-88
2022/06/25 21:17:14;;;;;;;12.20;6.63;;;20.50;99.90;;;;;;6218524;23;20027;-92
2022/06/25 21:20:01;;;;;;;;;;;;;;;;;;;;;
2022/06/25 21:23:07;;;;;;;14.07;8.63;;;20.40;99.90;;;;;;6218014;23;20016;-91
2022/06/25 21:25:41;;;;;;;13.15;8.13;;;20.30;99.90;;;;;;6246038;23;20012;-90
2022/06/25 21:28:24;;;;;;;14.07;8.98;;;20.30;99.90;;;;;;6246394;23;20021;-90
2022/06/25 21:31:04;;;;;;;15.57;8.90;;;20.30;99.90;;;;;;6230188;23;20016;-91
2022/06/25 21:33:49;;;;;;;14.27;9.18;;;20.20;99.90;;;;;;6246928;23;20015;-91
2022/06/25 21:36:31;;;;;;;15.23;8.27;;;21.00;99.90;;;;;;6252389;23;20016;-90
2022/06/25 21:39:02;;;;;;;15.30;8.07;;;20.50;99.90;;;;;;6273300;22;19996;-91
2022/06/25 21:41:56;;;;;;;15.32;7.55;;;20.10;99.90;;;;;;6247182;23;20032;-90
2022/06/25 21:44:37;;;;;;;12.57;7.05;;;20.00;99.90;;;;;;6220568;23;20049;-92
2022/06/25 21:47:21;;;;;;;11.75;6.75;;;20.00;99.90;;;;;;6219982;23;20494;-92
2022/06/25 21:50:03;;;;;;;11.85;6.90;;;20.00;99.90;;;;;;6247472;23;20070;-92
2022/06/25 21:53:04;;;;;;;11.20;7.15;;;20.00;99.90;;;;;;6184776;23;20073;-92
2022/06/25 21:55:45;;;;;;;13.10;6.95;;;20.00;99.90;;;;;;6221294;23;20016;-92
2022/06/25 21:58:41;;;;;;;12.30;6.95;;;19.90;99.90;;;;;;6246301;23;20020;-91
2022/06/25 22:01:25;;;;;;;12.10;6.95;;;19.90;99.90;;;;;;6247566;23;20020;-92
2022/06/25 22:04:00;;;;;;;13.27;7.30;;;19.70;99.90;;;;;;6189938;23;20136;-91
2022/06/25 22:06:31;;;;;;;11.18;7.03;;;19.60;99.90;;;;;;6189044;23;20013;-92
2022/06/25 22:09:15;;;;;;;30.10;23.83;;;19.90;99.90;;;;;;6191033;23;20021;-92
2022/06/25 22:12:09;;;;;;;33.40;27.63;;;19.80;99.90;;;;;;6217386;23;20013;-91
2022/06/25 22:14:38;;;;;;;24.75;21.50;;;19.80;99.90;;;;;;6192839;23;20492;-92
2022/06/25 22:17:10;;;;;;;13.88;9.60;;;19.70;99.90;;;;;;6189554;23;20027;-92
2022/06/25 22:19:48;;;;;;;13.68;8.43;;;19.70;99.90;;;;;;6190443;23;20017;-92
2022/06/25 22:22:21;;;;;;;12.07;7.65;;;20.50;99.90;;;;;;6189142;23;20021;-92
2022/06/25 22:25:02;;;;;;;12.77;7.68;;;19.90;99.90;;;;;;6217792;23;20017;-92
2022/06/25 22:27:36;;;;;;;12.32;7.28;;;19.80;99.90;;;;;;6215840;23;20365;-92
2022/06/25 22:30:32;;;;;;;10.98;6.95;;;19.60;99.90;;;;;;6190325;23;20091;-92
2022/06/25 22:33:14;;;;;;;14.38;6.82;;;19.40;99.90;;;;;;6211407;23;20017;-91
2022/06/25 22:36:07;;;;;;;11.02;6.55;;;19.50;99.90;;;;;;6191875;22;20020;-91
2022/06/25 22:38:49;;;;;;;11.52;6.50;;;19.50;99.90;;;;;;6219580;23;20027;-90
2022/06/25 22:41:30;;;;;;;10.38;6.10;;;20.00;99.90;;;;;;6219070;23;20047;-91
2022/06/25 22:44:05;;;;;;;15.93;6.72;;;19.30;99.90;;;;;;6219580;23;20456;-92
2022/06/25 22:46:46;;;;;;;12.52;6.82;;;19.30;99.90;;;;;;6220696;23;20027;-92
2022/06/25 22:49:12;;;;;;;12.85;6.53;;;19.60;99.90;;;;;;6219066;23;20020;-92
2022/06/25 22:51:47;;;;;;;11.05;6.70;;;19.30;99.90;;;;;;6246107;23;20096;-91
2022/06/25 22:54:13;;;;;;;11.88;6.65;;;19.50;99.90;;;;;;6245062;23;20051;-91
2022/06/25 22:56:54;;;;;;;11.43;6.63;;;19.80;99.90;;;;;;6212837;23;20020;-90
2022/06/25 23:02:47;;;;;;;11.60;6.57;;;19.10;99.90;;;;;;6245788;22;20020;-91
2022/06/25 23:06:10;;;;;;;10.88;7.13;;;18.90;99.90;;;;;;6222290;23;20052;-91
2022/06/25 23:09:32;;;;;;;12.07;7.00;;;18.90;99.90;;;;;;6249334;23;20017;-91
2022/06/25 23:12:54;;;;;;;12.68;6.93;;;18.70;99.90;;;;;;6247324;23;20020;-91
2022/06/25 23:16:14;;;;;;;11.75;6.63;;;18.90;99.90;;;;;;6219376;23;20024;-91
2022/06/25 23:19:37;;;;;;;12.35;7.47;;;18.70;99.90;;;;;;6249444;23;20024;-91
2022/06/25 23:23:06;;;;;;;11.35;6.55;;;18.60;99.90;;;;;;6219535;23;20449;-91
2022/06/25 23:26:28;;;;;;;13.18;7.38;;;18.70;99.90;;;;;;6247257;23;20020;-91
2022/06/25 23:29:22;;;;;;;11.27;7.45;;;18.50;99.90;;;;;;6219502;23;20456;-90
2022/06/25 23:32:07;;;;;;;13.27;8.00;;;18.60;99.90;;;;;;6219928;23;20349;-91
2022/06/25 23:34:33;;;;;;;12.27;7.32;;;18.50;99.90;;;;;;6226837;22;20020;-91
2022/06/25 23:37:14;;;;;;;13.00;8.27;;;18.40;99.90;;;;;;6249655;22;20561;-91
2022/06/25 23:39:49;;;;;;;12.85;7.55;;;18.40;99.90;;;;;;6250011;22;20456;-91
2022/06/25 23:42:44;;;;;;;12.75;7.50;;;19.30;99.90;;;;;;6276765;22;20074;-91
2022/06/25 23:45:25;;;;;;;11.82;7.22;;;18.40;99.90;;;;;;6249110;22;20020;-90
2022/06/25 23:48:06;;;;;;;12.32;7.30;;;19.00;99.90;;;;;;6250056;22;20371;-91
2022/06/25 23:50:41;;;;;;;12.63;7.60;;;18.20;99.90;;;;;;6249956;22;20022;-91
2022/06/25 23:53:10;;;;;;;13.32;7.88;;;18.20;99.90;;;;;;6278397;22;20015;-91
2022/06/25 23:55:51;;;;;;;12.40;7.60;;;18.20;99.90;;;;;;6250063;22;20102;-91
2022/06/25 23:58:23;;;;;;;12.38;8.07;;;18.20;99.90;;;;;;6277226;22;20085;-90
